createdAt,value
2018-09-11T00:01:41.977Z,100469.00
2018-09-11T00:04:11.575Z,100465.00
2018-09-11T00:06:40.644Z,100470.00
2018-09-11T00:09:12.070Z,100472.00
2018-09-11T00:11:41.828Z,100473.00
2018-09-11T00:14:10.937Z,100469.00
2018-09-11T00:16:40.076Z,100463.00
2018-09-11T00:19:09.160Z,100466.00
2018-09-11T00:21:38.204Z,100463.00
2018-09-11T00:24:07.400Z,100455.00
2018-09-11T00:26:36.594Z,100457.00
2018-09-11T00:29:05.660Z,100450.00
2018-09-11T00:31:34.888Z,100446.00
2018-09-11T00:34:04.086Z,100445.00
2018-09-11T00:36:33.332Z,100438.00
2018-09-11T00:39:02.349Z,100432.00
2018-09-11T00:41:31.392Z,100431.00
2018-09-11T00:44:00.546Z,100435.00
2018-09-11T00:46:29.697Z,100439.00
2018-09-11T00:48:58.925Z,100445.00
2018-09-11T00:51:28.277Z,100442.00
2018-09-11T00:53:57.320Z,100446.00
2018-09-11T00:56:27.251Z,100447.00
2018-09-11T00:58:57.324Z,100446.00
2018-09-11T01:01:26.371Z,100442.00
2018-09-11T01:03:55.421Z,100445.00
2018-09-11T01:06:24.556Z,100442.00
2018-09-11T01:08:53.688Z,100446.00
2018-09-11T01:11:22.787Z,100449.00
2018-09-11T01:13:51.896Z,100449.00
2018-09-11T01:16:20.987Z,100453.00
2018-09-11T01:18:50.081Z,100453.00
2018-09-11T01:21:19.187Z,100449.00
2018-09-11T01:23:48.312Z,100449.00
2018-09-11T01:26:17.304Z,100454.00
2018-09-11T01:28:46.509Z,100455.00
2018-09-11T01:31:15.796Z,100458.00
2018-09-11T01:33:45.065Z,100446.00
2018-09-11T01:36:14.230Z,100444.00
2018-09-11T01:38:43.412Z,100442.00
2018-09-11T01:41:12.564Z,100443.00
2018-09-11T01:43:41.719Z,100437.00
2018-09-11T01:46:11.341Z,100433.00
2018-09-11T01:48:40.756Z,100428.00
2018-09-11T01:51:09.924Z,100433.00
2018-09-11T01:53:39.032Z,100431.00
2018-09-11T01:56:08.045Z,100432.00
2018-09-11T01:58:37.146Z,100431.00
2018-09-11T02:01:06.215Z,100428.00
2018-09-11T02:03:35.359Z,100422.00
2018-09-11T02:06:04.392Z,100423.00
2018-09-11T02:08:33.576Z,100418.00
2018-09-11T02:11:02.801Z,100412.00
2018-09-11T02:13:31.848Z,100416.00
2018-09-11T02:16:00.897Z,100413.00
2018-09-11T02:18:30.322Z,100413.00
2018-09-11T02:20:59.439Z,100407.00
2018-09-11T02:23:28.573Z,100413.00
2018-09-11T02:25:57.723Z,100418.00
2018-09-11T02:28:26.793Z,100416.00
2018-09-11T02:30:55.891Z,100411.00
2018-09-11T02:33:25.037Z,100419.00
2018-09-11T02:35:54.175Z,100414.00
2018-09-11T02:38:23.223Z,100417.00
2018-09-11T02:40:52.280Z,100416.00
2018-09-11T02:43:21.417Z,100415.00
2018-09-11T02:45:50.668Z,100426.00
2018-09-11T02:48:19.759Z,100425.00
2018-09-11T02:50:48.892Z,100424.00
2018-09-11T02:53:17.935Z,100429.00
2018-09-11T02:55:46.991Z,100434.00
2018-09-11T02:58:16.511Z,100433.00
2018-09-11T03:00:45.621Z,100437.00
2018-09-11T03:03:14.811Z,100431.00
2018-09-11T03:05:44.168Z,100436.00
2018-09-11T03:08:13.280Z,100433.00
2018-09-11T03:10:42.404Z,100440.00
2018-09-11T03:13:11.541Z,100434.00
2018-09-11T03:15:40.592Z,100443.00
2018-09-11T03:18:09.806Z,100440.00
2018-09-11T03:20:38.992Z,100444.00
2018-09-11T03:23:08.108Z,100445.00
2018-09-11T03:25:37.565Z,100445.00
2018-09-11T03:28:06.748Z,100450.00
2018-09-11T03:30:35.809Z,100450.00
2018-09-11T03:33:04.932Z,100454.00
2018-09-11T03:35:34.033Z,100452.00
2018-09-11T03:38:03.192Z,100453.00
2018-09-11T03:40:32.679Z,100453.00
2018-09-11T03:43:02.756Z,100449.00
2018-09-11T03:45:31.827Z,100448.00
2018-09-11T03:48:01.457Z,100448.00
2018-09-11T03:50:30.592Z,100449.00
2018-09-11T03:52:59.709Z,100443.00
2018-09-11T03:55:28.822Z,100445.00
2018-09-11T03:57:57.910Z,100441.00
2018-09-11T04:00:26.974Z,100448.00
2018-09-11T04:02:57.049Z,100444.00
2018-09-11T04:05:26.252Z,100453.00
2018-09-11T04:07:55.330Z,100452.00
2018-09-11T04:10:24.479Z,100457.00
2018-09-11T04:12:53.664Z,100461.00
2018-09-11T04:15:22.817Z,100458.00
2018-09-11T04:17:52.132Z,100458.00
2018-09-11T04:20:21.350Z,100458.00
2018-09-11T04:22:50.827Z,100457.00
2018-09-11T04:25:20.153Z,100452.00
2018-09-11T04:29:09.661Z,100452.00
2018-09-11T04:31:38.921Z,100454.00
2018-09-11T04:34:08.216Z,100450.00
2018-09-11T04:36:37.405Z,100452.00
2018-09-11T04:39:08.600Z,100451.00
2018-09-11T04:41:37.796Z,100453.00
2018-09-11T04:44:06.932Z,100454.00
2018-09-11T04:46:36.141Z,100455.00
2018-09-11T04:49:05.491Z,100462.00
2018-09-11T04:51:34.652Z,100462.00
2018-09-11T04:54:03.901Z,100456.00
2018-09-11T04:56:33.159Z,100455.00
2018-09-11T04:59:02.276Z,100457.00
2018-09-11T05:01:31.452Z,100461.00
2018-09-11T05:04:00.712Z,100465.00
2018-09-11T05:06:30.391Z,100463.00
2018-09-11T05:08:59.606Z,100461.00
2018-09-11T05:11:28.819Z,100452.00
2018-09-11T05:13:58.781Z,100456.00
2018-09-11T05:16:27.987Z,100456.00
2018-09-11T05:18:57.168Z,100441.00
2018-09-11T05:21:27.764Z,100439.00
2018-09-11T05:23:56.877Z,100441.00
2018-09-11T05:26:26.470Z,100442.00
2018-09-11T05:28:55.747Z,100445.00
2018-09-11T05:31:24.966Z,100447.00
2018-09-11T05:33:54.123Z,100441.00
2018-09-11T05:36:23.250Z,100446.00
2018-09-11T05:38:52.509Z,100446.00
2018-09-11T05:41:21.743Z,100448.00
2018-09-11T05:43:50.918Z,100443.00
2018-09-11T05:46:20.158Z,100444.00
2018-09-11T05:48:49.256Z,100442.00
2018-09-11T05:51:18.591Z,100435.00
2018-09-11T05:53:47.875Z,100433.00
2018-09-11T05:56:17.282Z,100437.00
2018-09-11T05:58:46.614Z,100437.00
2018-09-11T06:01:15.832Z,100431.00
2018-09-11T06:03:45.248Z,100432.00
2018-09-11T06:06:14.843Z,100434.00
2018-09-11T06:08:44.295Z,100434.00
2018-09-11T06:11:14.007Z,100440.00
2018-09-11T06:13:43.141Z,100444.00
2018-09-11T06:16:12.730Z,100449.00
2018-09-11T06:18:42.117Z,100455.00
2018-09-11T06:21:13.320Z,100453.00
2018-09-11T06:23:44.043Z,100450.00
2018-09-11T06:26:15.181Z,100462.00
2018-09-11T06:28:52.732Z,100451.00
2018-09-11T06:31:23.030Z,100450.00
2018-09-11T06:33:52.465Z,100455.00
2018-09-11T06:36:21.937Z,100454.00
2018-09-11T06:38:51.639Z,100457.00
2018-09-11T06:41:21.828Z,100455.00
2018-09-11T06:43:53.475Z,100456.00
2018-09-11T06:46:23.117Z,100458.00
2018-09-11T06:48:53.094Z,100456.00
2018-09-11T06:51:23.543Z,100454.00
2018-09-11T06:53:53.270Z,100447.00
2018-09-11T06:56:22.959Z,100455.00
2018-09-11T06:58:53.731Z,100443.00
2018-09-11T07:01:23.934Z,100446.00
2018-09-11T07:03:53.623Z,100447.00
2018-09-11T07:06:25.427Z,100446.00
2018-09-11T07:08:55.366Z,100452.00
2018-09-11T07:11:25.358Z,100452.00
2018-09-11T07:13:57.817Z,100463.00
2018-09-11T07:16:28.170Z,100459.00
2018-09-11T07:18:58.137Z,100455.00
2018-09-11T07:21:29.578Z,100450.00
2018-09-11T07:23:59.305Z,100452.00
2018-09-11T07:26:28.814Z,100450.00
2018-09-11T07:29:00.825Z,100436.00
2018-09-11T07:31:33.600Z,100447.00
2018-09-11T07:34:04.517Z,100453.00
2018-09-11T07:36:34.341Z,100449.00
2018-09-11T07:39:03.798Z,100445.00
2018-09-11T07:41:34.036Z,100443.00
2018-09-11T07:44:03.527Z,100448.00
2018-09-11T07:46:35.963Z,100458.00
2018-09-11T07:49:07.565Z,100460.00
2018-09-11T07:51:37.245Z,100466.00
2018-09-11T07:54:09.461Z,100459.00
2018-09-11T07:56:39.425Z,100463.00
2018-09-11T07:59:09.820Z,100453.00
2018-09-11T08:01:39.434Z,100461.00
2018-09-11T08:04:15.704Z,100458.00
2018-09-11T08:06:46.621Z,100454.00
2018-09-11T08:09:18.071Z,100443.00
2018-09-11T08:11:49.215Z,100466.00
2018-09-11T08:14:19.244Z,100459.00
2018-09-11T08:16:49.735Z,100455.00
2018-09-11T08:19:20.185Z,100458.00
2018-09-11T08:21:49.897Z,100456.00
2018-09-11T08:24:21.041Z,100462.00
2018-09-11T08:26:51.298Z,100462.00
2018-09-11T08:29:23.689Z,100453.00
2018-09-11T08:31:55.392Z,100468.00
2018-09-11T08:34:25.735Z,100477.00
2018-09-11T08:36:57.862Z,100483.00
2018-09-11T08:39:27.488Z,100471.00
2018-09-11T08:41:57.294Z,100464.00
2018-09-11T08:44:26.341Z,100466.00
2018-09-11T08:46:56.075Z,100463.00
2018-09-11T08:49:27.549Z,100454.00
2018-09-11T08:51:58.522Z,100461.00
2018-09-11T08:54:29.145Z,100453.00
2018-09-11T08:57:00.887Z,100457.00
2018-09-11T08:59:30.484Z,100458.00
2018-09-11T09:02:00.761Z,100461.00
2018-09-11T09:04:31.011Z,100465.00
2018-09-11T09:07:01.608Z,100461.00
2018-09-11T09:09:31.022Z,100472.00
2018-09-11T09:12:00.443Z,100463.00
2018-09-11T09:14:30.994Z,100448.00
2018-09-11T09:17:00.715Z,100466.00
2018-09-11T09:19:30.391Z,100457.00
2018-09-11T09:22:02.519Z,100465.00
2018-09-11T09:24:32.108Z,100445.00
2018-09-11T09:27:01.547Z,100462.00
2018-09-11T09:29:31.026Z,100460.00
2018-09-11T09:32:01.493Z,100451.00
2018-09-11T09:34:30.801Z,100447.00
2018-09-11T09:37:00.476Z,100451.00
2018-09-11T09:39:30.398Z,100449.00
2018-09-11T09:42:01.519Z,100449.00
2018-09-11T09:44:34.953Z,100442.00
2018-09-11T09:47:04.432Z,100439.00
2018-09-11T09:49:35.087Z,100438.00
2018-09-11T09:52:06.635Z,100427.00
2018-09-11T09:54:37.283Z,100436.00
2018-09-11T09:57:06.688Z,100434.00
2018-09-11T09:59:36.174Z,100442.00
2018-09-11T10:02:12.515Z,100436.00
2018-09-11T10:04:44.096Z,100437.00
2018-09-11T10:07:18.893Z,100442.00
2018-09-11T10:09:51.592Z,100424.00
2018-09-11T10:12:24.449Z,100461.00
2018-09-11T10:14:54.321Z,100453.00
2018-09-11T10:17:23.927Z,100452.00
2018-09-11T10:19:53.275Z,100446.00
2018-09-11T10:22:27.179Z,100457.00
2018-09-11T10:24:59.956Z,100454.00
2018-09-11T10:27:29.885Z,100450.00
2018-09-11T10:29:59.903Z,100462.00
2018-09-11T10:32:29.800Z,100454.00
2018-09-11T10:35:00.958Z,100440.00
2018-09-11T10:37:32.277Z,100445.00
2018-09-11T10:40:03.097Z,100458.00
2018-09-11T10:42:33.191Z,100440.00
2018-09-11T10:45:02.589Z,100445.00
2018-09-11T10:47:35.038Z,100435.00
2018-09-11T10:50:05.653Z,100442.00
2018-09-11T10:52:38.418Z,100415.00
2018-09-11T10:55:08.156Z,100440.00
2018-09-11T10:57:37.744Z,100450.00
2018-09-11T11:00:08.108Z,100443.00
2018-09-11T11:02:39.853Z,100441.00
2018-09-11T11:05:12.495Z,100448.00
2018-09-11T11:07:42.168Z,100441.00
2018-09-11T11:10:14.664Z,100435.00
2018-09-11T11:12:44.052Z,100433.00
2018-09-11T11:15:13.852Z,100424.00
2018-09-11T11:17:43.837Z,100422.00
2018-09-11T11:20:13.292Z,100427.00
2018-09-11T11:22:42.783Z,100432.00
2018-09-11T11:25:13.260Z,100421.00
2018-09-11T11:27:43.451Z,100431.00
2018-09-11T11:30:16.992Z,100431.00
2018-09-11T11:32:48.308Z,100420.00
2018-09-11T11:35:20.814Z,100420.00
2018-09-11T11:37:51.674Z,100420.00
2018-09-11T11:40:21.761Z,100413.00
2018-09-11T11:42:55.371Z,100414.00
2018-09-11T11:45:24.805Z,100416.00
2018-09-11T11:47:56.270Z,100426.00
2018-09-11T11:50:28.835Z,100421.00
2018-09-11T11:53:00.427Z,100415.00
2018-09-11T11:55:31.067Z,100421.00
2018-09-11T11:58:01.145Z,100418.00
2018-09-11T12:00:31.203Z,100424.00
2018-09-11T12:03:00.657Z,100427.00
2018-09-11T12:05:34.585Z,100423.00
2018-09-11T12:08:05.731Z,100412.00
2018-09-11T12:10:35.872Z,100415.00
2018-09-11T12:13:06.854Z,100409.00
2018-09-11T12:15:36.917Z,100405.00
2018-09-11T12:18:06.835Z,100413.00
2018-09-11T12:20:36.989Z,100399.00
2018-09-11T12:23:06.880Z,100406.00
2018-09-11T12:25:36.301Z,100397.00
2018-09-11T12:28:06.629Z,100398.00
2018-09-11T12:30:36.566Z,100398.00
2018-09-11T12:33:06.175Z,100395.00
2018-09-11T12:35:36.747Z,100389.00
2018-09-11T12:38:08.750Z,100390.00
2018-09-11T12:40:38.220Z,100376.00
2018-09-11T12:43:08.541Z,100371.00
2018-09-11T12:45:38.440Z,100372.00
2018-09-11T12:48:08.822Z,100363.00
2018-09-11T12:50:38.138Z,100379.00
2018-09-11T12:53:07.727Z,100377.00
2018-09-11T12:55:36.984Z,100368.00
2018-09-11T12:58:07.639Z,100368.00
2018-09-11T13:00:40.068Z,100368.00
2018-09-11T13:03:09.748Z,100367.00
2018-09-11T13:05:42.872Z,100366.00
2018-09-11T13:08:12.456Z,100362.00
2018-09-11T13:10:44.854Z,100365.00
2018-09-11T13:13:13.992Z,100352.00
2018-09-11T13:15:43.821Z,100344.00
2018-09-11T13:18:13.561Z,100356.00
2018-09-11T13:20:45.859Z,100357.00
2018-09-11T13:23:16.273Z,100352.00
2018-09-11T13:25:47.049Z,100345.00
2018-09-11T13:28:17.883Z,100356.00
2018-09-11T13:30:48.672Z,100348.00
2018-09-11T13:33:18.935Z,100350.00
2018-09-11T13:35:48.384Z,100354.00
2018-09-11T13:38:18.932Z,100348.00
2018-09-11T13:40:49.053Z,100344.00
2018-09-11T13:43:18.708Z,100348.00
2018-09-11T13:45:49.246Z,100327.00
2018-09-11T13:48:20.063Z,100339.00
2018-09-11T13:50:49.586Z,100327.00
2018-09-11T13:53:18.715Z,100332.00
2018-09-11T13:55:47.844Z,100336.00
2018-09-11T13:58:17.053Z,100333.00
2018-09-11T14:00:46.406Z,100344.00
2018-09-11T14:03:15.792Z,100337.00
2018-09-11T14:05:45.001Z,100333.00
2018-09-11T14:08:14.398Z,100334.00
2018-09-11T14:10:43.959Z,100330.00
2018-09-11T14:13:13.523Z,100329.00
2018-09-11T14:15:42.966Z,100328.00
2018-09-11T14:18:12.132Z,100321.00
2018-09-11T14:20:41.305Z,100326.00
2018-09-11T14:23:10.512Z,100320.00
2018-09-11T14:25:39.953Z,100318.00
2018-09-11T14:28:09.269Z,100320.00
2018-09-11T14:30:38.373Z,100322.00
2018-09-11T14:33:07.493Z,100317.00
2018-09-11T14:35:36.716Z,100322.00
2018-09-11T14:38:06.303Z,100317.00
2018-09-11T14:40:35.762Z,100315.00
2018-09-11T14:43:05.061Z,100320.00
2018-09-11T14:45:34.230Z,100316.00
2018-09-11T14:48:03.403Z,100317.00
2018-09-11T14:50:32.826Z,100318.00
2018-09-11T14:53:02.164Z,100305.00
2018-09-11T14:55:31.337Z,100305.00
2018-09-11T14:58:00.662Z,100309.00
2018-09-11T15:00:29.939Z,100305.00
2018-09-11T15:02:59.186Z,100303.00
2018-09-11T15:05:28.371Z,100302.00
2018-09-11T15:07:57.603Z,100301.00
2018-09-11T15:10:26.729Z,100299.00
2018-09-11T15:12:55.877Z,100282.00
2018-09-11T15:15:25.026Z,100304.00
2018-09-11T15:17:54.222Z,100293.00
2018-09-11T15:20:23.418Z,100297.00
2018-09-11T15:22:52.658Z,100294.00
2018-09-11T15:25:21.787Z,100270.00
2018-09-11T15:27:51.008Z,100279.00
2018-09-11T15:30:20.121Z,100279.00
2018-09-11T15:32:49.313Z,100282.00
2018-09-11T15:35:18.532Z,100281.00
2018-09-11T15:37:47.856Z,100278.00
2018-09-11T15:40:17.120Z,100275.00
2018-09-11T15:42:47.561Z,100270.00
2018-09-11T15:45:17.082Z,100274.00
2018-09-11T15:47:47.409Z,100270.00
2018-09-11T15:50:17.209Z,100268.00
2018-09-11T15:52:47.697Z,100265.00
2018-09-11T15:55:19.240Z,100261.00
2018-09-11T15:57:50.392Z,100259.00
2018-09-11T16:00:22.181Z,100256.00
2018-09-11T16:02:51.769Z,100255.00
2018-09-11T16:05:23.699Z,100261.00
2018-09-11T16:07:56.806Z,100252.00
2018-09-11T16:10:26.389Z,100248.00
2018-09-11T16:12:55.997Z,100239.00
2018-09-11T16:15:25.628Z,100236.00
2018-09-11T16:17:55.145Z,100234.00
2018-09-11T16:20:24.684Z,100241.00
2018-09-11T16:22:54.106Z,100236.00
2018-09-11T16:25:23.590Z,100233.00
2018-09-11T16:27:56.037Z,100238.00
2018-09-11T16:30:25.412Z,100233.00
2018-09-11T16:32:55.122Z,100226.00
2018-09-11T16:35:26.858Z,100230.00
2018-09-11T16:37:57.202Z,100235.00
2018-09-11T16:40:26.723Z,100232.00
2018-09-11T16:42:56.709Z,100231.00
2018-09-11T16:45:26.589Z,100234.00
2018-09-11T16:47:58.182Z,100232.00
2018-09-11T16:50:30.242Z,100228.00
2018-09-11T16:52:59.552Z,100224.00
2018-09-11T16:55:29.051Z,100234.00
2018-09-11T16:57:58.940Z,100233.00
2018-09-11T17:00:28.553Z,100231.00
2018-09-11T17:03:00.095Z,100228.00
2018-09-11T17:05:29.678Z,100234.00
2018-09-11T17:08:02.792Z,100229.00
2018-09-11T17:10:32.784Z,100228.00
2018-09-11T17:13:02.709Z,100234.00
2018-09-11T17:15:32.532Z,100235.00
2018-09-11T17:18:01.861Z,100238.00
2018-09-11T17:20:31.515Z,100236.00
2018-09-11T17:23:01.371Z,100237.00
2018-09-11T17:25:32.989Z,100242.00
2018-09-11T17:28:04.439Z,100243.00
2018-09-11T17:30:34.409Z,100245.00
2018-09-11T17:33:04.605Z,100238.00
2018-09-11T17:35:35.402Z,100244.00
2018-09-11T17:38:04.638Z,100242.00
2018-09-11T17:40:34.335Z,100241.00
2018-09-11T17:43:07.266Z,100247.00
2018-09-11T17:45:38.711Z,100247.00
2018-09-11T17:48:08.280Z,100253.00
2018-09-11T17:50:40.627Z,100248.00
2018-09-11T17:53:09.949Z,100256.00
2018-09-11T17:55:41.194Z,100255.00
2018-09-11T17:58:12.357Z,100261.00
2018-09-11T18:00:46.153Z,100263.00
2018-09-11T18:03:20.691Z,100265.00
2018-09-11T18:05:52.488Z,100269.00
2018-09-11T18:08:23.155Z,100270.00
2018-09-11T18:10:53.624Z,100271.00
2018-09-11T18:13:24.815Z,100276.00
2018-09-11T18:15:54.794Z,100277.00
2018-09-11T18:18:25.319Z,100278.00
2018-09-11T18:20:55.884Z,100278.00
2018-09-11T18:23:28.250Z,100281.00
2018-09-11T18:25:58.708Z,100286.00
2018-09-11T18:28:32.995Z,100283.00
2018-09-11T18:31:02.996Z,100290.00
2018-09-11T18:33:33.732Z,100297.00
2018-09-11T18:36:04.229Z,100292.00
2018-09-11T18:38:35.987Z,100298.00
2018-09-11T18:41:07.799Z,100298.00
2018-09-11T18:43:38.151Z,100297.00
2018-09-11T18:46:14.355Z,100298.00
2018-09-11T18:48:45.392Z,100295.00
2018-09-11T18:51:15.133Z,100301.00
2018-09-11T18:53:47.362Z,100299.00
2018-09-11T18:56:20.875Z,100301.00
2018-09-11T18:58:51.904Z,100301.00
2018-09-11T19:01:23.336Z,100302.00
2018-09-11T19:03:53.602Z,100303.00
2018-09-11T19:06:24.655Z,100301.00
2018-09-11T19:08:54.936Z,100299.00
2018-09-11T19:11:26.302Z,100301.00
2018-09-11T19:13:56.660Z,100300.00
2018-09-11T19:16:30.289Z,100306.00
2018-09-11T19:19:03.309Z,100305.00
2018-09-11T19:21:37.593Z,100303.00
2018-09-11T19:24:07.885Z,100308.00
2018-09-11T19:26:41.411Z,100311.00
2018-09-11T19:29:10.933Z,100310.00
2018-09-11T19:31:42.673Z,100314.00
2018-09-11T19:34:15.513Z,100309.00
2018-09-11T19:36:45.865Z,100312.00
2018-09-11T19:39:17.481Z,100308.00
2018-09-11T19:41:47.069Z,100306.00
2018-09-11T19:44:18.115Z,100303.00
2018-09-11T19:46:50.428Z,100306.00
2018-09-11T19:49:22.194Z,100309.00
2018-09-11T19:51:53.876Z,100306.00
2018-09-11T19:54:29.958Z,100310.00
2018-09-11T19:57:03.100Z,100311.00
2018-09-11T19:59:37.604Z,100317.00
2018-09-11T20:02:11.713Z,100315.00
2018-09-11T20:04:42.128Z,100316.00
2018-09-11T20:07:13.432Z,100309.00
2018-09-11T20:09:45.695Z,100308.00
2018-09-11T20:12:16.216Z,100310.00
2018-09-11T20:14:45.464Z,100317.00
2018-09-11T20:17:14.906Z,100314.00
2018-09-11T20:19:44.143Z,100315.00
2018-09-11T20:22:14.711Z,100315.00
2018-09-11T20:24:43.834Z,100314.00
2018-09-11T20:27:12.922Z,100315.00
2018-09-11T20:29:42.441Z,100320.00
2018-09-11T20:32:11.710Z,100324.00
2018-09-11T20:34:40.935Z,100326.00
2018-09-11T20:39:53.993Z,100327.00
2018-09-11T20:42:23.353Z,100325.00
2018-09-11T20:44:52.742Z,100327.00
2018-09-11T20:47:21.952Z,100322.00
2018-09-11T20:49:51.115Z,100323.00
2018-09-11T20:52:20.164Z,100322.00
2018-09-11T20:54:49.309Z,100318.00
2018-09-11T20:57:18.473Z,100324.00
2018-09-11T20:59:47.634Z,100322.00
2018-09-11T21:05:16.885Z,100335.00
2018-09-11T21:07:46.281Z,100341.00
2018-09-11T21:10:15.521Z,100338.00
2018-09-11T21:12:45.441Z,100341.00
2018-09-11T21:15:14.574Z,100336.00
2018-09-11T21:17:43.680Z,100339.00
2018-09-11T21:20:13.018Z,100340.00
2018-09-11T21:22:42.412Z,100344.00
2018-09-11T21:25:11.822Z,100337.00
2018-09-11T21:27:41.039Z,100339.00
2018-09-11T21:30:10.273Z,100341.00
2018-09-11T21:32:39.402Z,100335.00
2018-09-11T21:35:08.641Z,100339.00
2018-09-11T21:37:37.780Z,100338.00
2018-09-11T21:40:06.916Z,100339.00
2018-09-11T21:42:35.977Z,100336.00
2018-09-11T21:45:05.232Z,100346.00
2018-09-11T21:47:34.361Z,100345.00
2018-09-11T21:50:03.540Z,100343.00
2018-09-11T21:52:33.724Z,100343.00
2018-09-11T21:55:02.756Z,100344.00
2018-09-11T21:57:31.832Z,100337.00
2018-09-11T22:00:00.975Z,100339.00
2018-09-11T22:02:30.107Z,100343.00
2018-09-11T22:04:59.153Z,100340.00
2018-09-11T22:07:28.328Z,100339.00
2018-09-11T22:09:57.360Z,100335.00
2018-09-11T22:12:26.625Z,100334.00
2018-09-11T22:14:55.760Z,100336.00
2018-09-11T22:17:24.925Z,100337.00
2018-09-11T22:19:54.131Z,100340.00
2018-09-11T22:22:23.437Z,100338.00
2018-09-11T22:24:52.616Z,100340.00
2018-09-11T22:27:21.728Z,100340.00
2018-09-11T22:29:50.899Z,100343.00
2018-09-11T22:32:19.960Z,100341.00
2018-09-11T22:34:49.182Z,100339.00
2018-09-11T22:37:18.289Z,100336.00
2018-09-11T22:39:47.426Z,100342.00
2018-09-11T22:42:16.744Z,100334.00
2018-09-11T22:44:46.324Z,100340.00
2018-09-11T22:47:15.603Z,100335.00
2018-09-11T22:49:44.806Z,100334.00
2018-09-11T22:52:13.977Z,100332.00
2018-09-11T22:54:43.124Z,100333.00
2018-09-11T22:57:12.385Z,100334.00
2018-09-11T22:59:42.240Z,100331.00
2018-09-11T23:02:11.829Z,100329.00
2018-09-11T23:04:41.466Z,100329.00
2018-09-11T23:07:10.714Z,100319.00
2018-09-11T23:09:39.808Z,100317.00
2018-09-11T23:12:08.951Z,100317.00
2018-09-11T23:14:38.121Z,100316.00
2018-09-11T23:17:07.264Z,100318.00
2018-09-11T23:19:36.469Z,100318.00
2018-09-11T23:22:05.770Z,100313.00
2018-09-11T23:24:34.834Z,100314.00
2018-09-11T23:27:03.928Z,100314.00
2018-09-11T23:29:32.996Z,100309.00
2018-09-11T23:32:02.091Z,100305.00
2018-09-11T23:34:31.298Z,100310.00
2018-09-11T23:37:00.532Z,100308.00
2018-09-11T23:39:29.890Z,100310.00
2018-09-11T23:41:58.959Z,100316.00
2018-09-11T23:44:28.017Z,100317.00
2018-09-11T23:46:57.153Z,100322.00
2018-09-11T23:49:26.211Z,100318.00
2018-09-11T23:51:56.320Z,100318.00
2018-09-11T23:54:26.397Z,100316.00
2018-09-11T23:56:55.512Z,100311.00
2018-09-11T23:59:24.596Z,100317.00
